Port Orford, OR

4:14 PM PST on February 06, 2016 (GMT -0800)
Port Orford RV Village | | Change Station
CLOSE
Current Station
Personal Weather Station
Location: Port Orford, OR
Elevation: 47 ft
Nearby Weather Stations

Elev 47 ft 42.76 °N, 124.49 °W | Updated 2 seconds ago

Overcast
Overcast
54.1 °F
Feels Like 54.1 °F
N
0.0
Wind Variable Wind from SSW
Gusts 2.0 mph

Today
High -- | Low -- °F
--% Chance of Precip.
Yesterday
High -- | Low -- °F
Precip. -- in
Pressure 30.39 in
Visibility 2.5 miles
Clouds Few 300 ft
Overcast 1800 ft
Dew Point 53 °F
Humidity 95%
Rainfall 0.36 in
Snow Depth Not available.
7:27 AM 5:37 PM
Waning Crescent, 3% visible
METAR KOTH 062355Z 00000KT 2 1/2SM FEW003 OVC018 12/11 A3039 RMK AO1 P0001 60001 10130 20100 401500080 57007
Pressure 30.39 in
Visibility 2.5 miles
Clouds Few 300 ft
Overcast 1800 ft
Dew Point 53 °F
Humidity 95%
Rainfall 0.36 in
Snow Depth Not available.
7:27 AM 5:37 PM
Waning Crescent, 3% visible
METAR KOTH 062355Z 00000KT 2 1/2SM FEW003 OVC018 12/11 A3039 RMK AO1 P0001 60001 10130 20100 401500080 57007

10-Day Weather Forecast

Almanac

Astronomy

Feb. 06, 2016 Rise Set
Actual Time
Civil Twilight
Nautical Twilight
Astronomical Twilight
Moon
Length of Visible Light
Length of Day
Tomorrow will be .
, % of the Moon is Illuminated

Today's Extremes

State Highs State Lows

Community

WunderPhotos

Upload Photos

1,891,105 photos uploaded!

WunderBlog® & News

Nearby

Air Quality

  Air Quality AQ Index Pollutant
Not available.

Snow Depth

Station Depth Elevation

Earthquake Activity

City Distance Mag. Time & Date
Minimum magnitude displayed is 2.5.

Coastal Water Temperatures

Place Temperature

Stations

Nearby Weather Stations

Station Location Temp. Windchill Dew Point Humidity Wind Precip. Elev Updated Type
                   

Watches & Warnings

There are currently no watches in effect.